sensor_id;sensor_type;location;lat;lon;timestamp;P1;durP1;ratioP1;P2;durP2;ratioP2
71148;SDS011;59072;42.144;25.200;2023-04-25T00:01:45;5.72;;;3.03;;
71148;SDS011;59072;42.144;25.200;2023-04-25T00:04:11;6.18;;;3.10;;
71148;SDS011;59072;42.144;25.200;2023-04-25T00:06:36;5.97;;;3.45;;
71148;SDS011;59072;42.144;25.200;2023-04-25T00:09:02;5.70;;;3.80;;
71148;SDS011;59072;42.144;25.200;2023-04-25T00:11:32;8.07;;;3.75;;
71148;SDS011;59072;42.144;25.200;2023-04-25T00:13:57;6.28;;;3.67;;
71148;SDS011;59072;42.144;25.200;2023-04-25T00:16:24;7.50;;;3.80;;
71148;SDS011;59072;42.144;25.200;2023-04-25T00:18:50;6.88;;;3.65;;
71148;SDS011;59072;42.144;25.200;2023-04-25T00:21:19;5.88;;;3.70;;
71148;SDS011;59072;42.144;25.200;2023-04-25T00:23:45;5.88;;;3.58;;
71148;SDS011;59072;42.144;25.200;2023-04-25T00:26:11;6.68;;;3.80;;
71148;SDS011;59072;42.144;25.200;2023-04-25T00:28:37;7.78;;;4.10;;
71148;SDS011;59072;42.144;25.200;2023-04-25T00:31:03;5.32;;;3.53;;
71148;SDS011;59072;42.144;25.200;2023-04-25T00:33:28;7.45;;;3.85;;
71148;SDS011;59072;42.144;25.200;2023-04-25T00:35:55;9.20;;;4.47;;
71148;SDS011;59072;42.144;25.200;2023-04-25T00:38:20;7.45;;;4.50;;
71148;SDS011;59072;42.144;25.200;2023-04-25T00:40:46;7.22;;;5.20;;
71148;SDS011;59072;42.144;25.200;2023-04-25T00:43:11;7.10;;;4.88;;
71148;SDS011;59072;42.144;25.200;2023-04-25T00:45:38;9.75;;;5.18;;
71148;SDS011;59072;42.144;25.200;2023-04-25T00:48:04;9.55;;;5.75;;
71148;SDS011;59072;42.144;25.200;2023-04-25T00:50:30;8.05;;;5.88;;
71148;SDS011;59072;42.144;25.200;2023-04-25T00:52:55;11.32;;;5.75;;
71148;SDS011;59072;42.144;25.200;2023-04-25T00:55:21;11.13;;;6.22;;
71148;SDS011;59072;42.144;25.200;2023-04-25T00:57:47;8.43;;;5.85;;
71148;SDS011;59072;42.144;25.200;2023-04-25T01:00:13;9.48;;;6.28;;
71148;SDS011;59072;42.144;25.200;2023-04-25T01:02:39;10.82;;;6.65;;
71148;SDS011;59072;42.144;25.200;2023-04-25T01:05:06;11.10;;;8.60;;
71148;SDS011;59072;42.144;25.200;2023-04-25T01:07:32;18.75;;;14.95;;
71148;SDS011;59072;42.144;25.200;2023-04-25T01:09:58;16.08;;;10.30;;
71148;SDS011;59072;42.144;25.200;2023-04-25T01:12:24;11.02;;;7.68;;
71148;SDS011;59072;42.144;25.200;2023-04-25T01:14:50;11.48;;;7.32;;
71148;SDS011;59072;42.144;25.200;2023-04-25T01:17:15;13.35;;;7.40;;
71148;SDS011;59072;42.144;25.200;2023-04-25T01:19:42;10.75;;;7.85;;
71148;SDS011;59072;42.144;25.200;2023-04-25T01:22:08;13.15;;;10.02;;
71148;SDS011;59072;42.144;25.200;2023-04-25T01:24:35;9.38;;;7.03;;
71148;SDS011;59072;42.144;25.200;2023-04-25T01:27:02;10.07;;;5.15;;
71148;SDS011;59072;42.144;25.200;2023-04-25T01:29:28;8.60;;;5.70;;
71148;SDS011;59072;42.144;25.200;2023-04-25T01:31:54;8.13;;;5.10;;
71148;SDS011;59072;42.144;25.200;2023-04-25T01:34:19;8.07;;;4.57;;
71148;SDS011;59072;42.144;25.200;2023-04-25T01:36:46;7.35;;;4.10;;
71148;SDS011;59072;42.144;25.200;2023-04-25T01:39:15;8.02;;;4.63;;
71148;SDS011;59072;42.144;25.200;2023-04-25T01:41:40;6.75;;;4.32;;
71148;SDS011;59072;42.144;25.200;2023-04-25T01:44:06;8.70;;;4.88;;
71148;SDS011;59072;42.144;25.200;2023-04-25T01:46:32;7.80;;;5.43;;
71148;SDS011;59072;42.144;25.200;2023-04-25T01:48:58;7.82;;;5.22;;
71148;SDS011;59072;42.144;25.200;2023-04-25T01:51:24;9.45;;;5.18;;
71148;SDS011;59072;42.144;25.200;2023-04-25T01:53:49;8.93;;;5.22;;
71148;SDS011;59072;42.144;25.200;2023-04-25T01:56:15;9.20;;;5.68;;
71148;SDS011;59072;42.144;25.200;2023-04-25T01:58:43;7.97;;;5.50;;
71148;SDS011;59072;42.144;25.200;2023-04-25T02:01:08;8.98;;;6.43;;
71148;SDS011;59072;42.144;25.200;2023-04-25T02:03:34;9.98;;;6.72;;
71148;SDS011;59072;42.144;25.200;2023-04-25T02:06:00;10.90;;;6.93;;
71148;SDS011;59072;42.144;25.200;2023-04-25T02:08:25;11.43;;;7.47;;
71148;SDS011;59072;42.144;25.200;2023-04-25T02:10:51;13.65;;;9.85;;
71148;SDS011;59072;42.144;25.200;2023-04-25T02:13:17;15.20;;;10.25;;
71148;SDS011;59072;42.144;25.200;2023-04-25T02:15:42;12.90;;;9.30;;
71148;SDS011;59072;42.144;25.200;2023-04-25T02:18:08;16.35;;;10.68;;
71148;SDS011;59072;42.144;25.200;2023-04-25T02:20:35;16.17;;;12.00;;
71148;SDS011;59072;42.144;25.200;2023-04-25T02:23:01;14.50;;;9.38;;
71148;SDS011;59072;42.144;25.200;2023-04-25T02:25:27;12.27;;;8.73;;
71148;SDS011;59072;42.144;25.200;2023-04-25T02:27:52;14.68;;;10.38;;
71148;SDS011;59072;42.144;25.200;2023-04-25T02:30:18;14.23;;;9.25;;
71148;SDS011;59072;42.144;25.200;2023-04-25T02:32:44;12.25;;;8.57;;
71148;SDS011;59072;42.144;25.200;2023-04-25T02:35:10;11.05;;;8.13;;
71148;SDS011;59072;42.144;25.200;2023-04-25T02:37:36;11.82;;;8.63;;
71148;SDS011;59072;42.144;25.200;2023-04-25T02:40:03;11.35;;;8.52;;
71148;SDS011;59072;42.144;25.200;2023-04-25T02:42:29;12.52;;;8.93;;
71148;SDS011;59072;42.144;25.200;2023-04-25T02:44:55;13.57;;;9.35;;
71148;SDS011;59072;42.144;25.200;2023-04-25T02:47:20;11.95;;;8.18;;
71148;SDS011;59072;42.144;25.200;2023-04-25T02:49:45;10.27;;;7.07;;
71148;SDS011;59072;42.144;25.200;2023-04-25T02:52:11;10.95;;;7.00;;
71148;SDS011;59072;42.144;25.200;2023-04-25T02:54:37;10.35;;;7.47;;
71148;SDS011;59072;42.144;25.200;2023-04-25T02:57:03;9.40;;;6.78;;
71148;SDS011;59072;42.144;25.200;2023-04-25T02:59:29;8.93;;;6.13;;
71148;SDS011;59072;42.144;25.200;2023-04-25T03:01:54;8.68;;;5.63;;
71148;SDS011;59072;42.144;25.200;2023-04-25T03:04:20;9.60;;;6.20;;
71148;SDS011;59072;42.144;25.200;2023-04-25T03:06:46;9.68;;;5.97;;
71148;SDS011;59072;42.144;25.200;2023-04-25T03:09:11;10.30;;;6.18;;
71148;SDS011;59072;42.144;25.200;2023-04-25T03:11:38;9.20;;;5.70;;
71148;SDS011;59072;42.144;25.200;2023-04-25T03:14:03;28.55;;;22.45;;
71148;SDS011;59072;42.144;25.200;2023-04-25T03:16:29;10.90;;;8.40;;
71148;SDS011;59072;42.144;25.200;2023-04-25T03:18:57;14.85;;;7.13;;
71148;SDS011;59072;42.144;25.200;2023-04-25T03:21:22;9.30;;;6.22;;
71148;SDS011;59072;42.144;25.200;2023-04-25T03:23:48;8.75;;;6.70;;
71148;SDS011;59072;42.144;25.200;2023-04-25T03:26:13;11.43;;;7.00;;
71148;SDS011;59072;42.144;25.200;2023-04-25T03:28:39;10.27;;;6.13;;
71148;SDS011;59072;42.144;25.200;2023-04-25T03:31:05;9.20;;;6.70;;
71148;SDS011;59072;42.144;25.200;2023-04-25T03:33:30;9.85;;;7.10;;
71148;SDS011;59072;42.144;25.200;2023-04-25T03:35:56;9.68;;;6.50;;
71148;SDS011;59072;42.144;25.200;2023-04-25T03:38:21;9.98;;;6.65;;
71148;SDS011;59072;42.144;25.200;2023-04-25T03:40:47;9.98;;;6.40;;
71148;SDS011;59072;42.144;25.200;2023-04-25T03:43:12;10.35;;;6.40;;
71148;SDS011;59072;42.144;25.200;2023-04-25T03:45:37;8.35;;;5.90;;
71148;SDS011;59072;42.144;25.200;2023-04-25T03:48:03;9.38;;;5.82;;
71148;SDS011;59072;42.144;25.200;2023-04-25T03:50:29;9.23;;;6.57;;
71148;SDS011;59072;42.144;25.200;2023-04-25T03:52:54;8.88;;;5.63;;
71148;SDS011;59072;42.144;25.200;2023-04-25T03:55:20;10.05;;;5.95;;
71148;SDS011;59072;42.144;25.200;2023-04-25T03:57:45;9.82;;;6.75;;
71148;SDS011;59072;42.144;25.200;2023-04-25T04:00:11;9.98;;;7.05;;
71148;SDS011;59072;42.144;25.200;2023-04-25T04:02:37;9.93;;;6.55;;
71148;SDS011;59072;42.144;25.200;2023-04-25T04:05:04;10.30;;;5.82;;
71148;SDS011;59072;42.144;25.200;2023-04-25T04:07:30;9.50;;;6.70;;
71148;SDS011;59072;42.144;25.200;2023-04-25T04:09:57;11.82;;;6.65;;
71148;SDS011;59072;42.144;25.200;2023-04-25T04:12:23;12.15;;;6.97;;
71148;SDS011;59072;42.144;25.200;2023-04-25T04:14:49;9.85;;;6.00;;
71148;SDS011;59072;42.144;25.200;2023-04-25T04:17:14;10.57;;;5.95;;
71148;SDS011;59072;42.144;25.200;2023-04-25T04:19:39;11.30;;;6.07;;
71148;SDS011;59072;42.144;25.200;2023-04-25T04:22:05;9.50;;;5.47;;
71148;SDS011;59072;42.144;25.200;2023-04-25T04:24:30;9.10;;;5.63;;
71148;SDS011;59072;42.144;25.200;2023-04-25T04:26:56;10.70;;;5.95;;
71148;SDS011;59072;42.144;25.200;2023-04-25T04:29:22;10.52;;;5.97;;
71148;SDS011;59072;42.144;25.200;2023-04-25T04:31:50;9.32;;;5.82;;
71148;SDS011;59072;42.144;25.200;2023-04-25T04:34:17;10.55;;;6.40;;
71148;SDS011;59072;42.144;25.200;2023-04-25T04:36:43;8.68;;;5.75;;
71148;SDS011;59072;42.144;25.200;2023-04-25T04:39:13;8.60;;;5.93;;
71148;SDS011;59072;42.144;25.200;2023-04-25T04:41:39;11.65;;;6.18;;
71148;SDS011;59072;42.144;25.200;2023-04-25T04:44:05;8.70;;;6.03;;
71148;SDS011;59072;42.144;25.200;2023-04-25T04:46:32;8.80;;;6.05;;
71148;SDS011;59072;42.144;25.200;2023-04-25T04:49:04;10.95;;;6.15;;
71148;SDS011;59072;42.144;25.200;2023-04-25T04:51:30;10.30;;;6.87;;
71148;SDS011;59072;42.144;25.200;2023-04-25T04:53:56;11.15;;;6.75;;
71148;SDS011;59072;42.144;25.200;2023-04-25T04:56:23;11.50;;;6.70;;
71148;SDS011;59072;42.144;25.200;2023-04-25T04:58:50;9.32;;;6.55;;
71148;SDS011;59072;42.144;25.200;2023-04-25T05:01:16;11.30;;;7.10;;
71148;SDS011;59072;42.144;25.200;2023-04-25T05:03:41;10.65;;;7.43;;
71148;SDS011;59072;42.144;25.200;2023-04-25T05:06:07;10.35;;;7.18;;
71148;SDS011;59072;42.144;25.200;2023-04-25T05:08:33;10.38;;;7.13;;
71148;SDS011;59072;42.144;25.200;2023-04-25T05:10:59;11.52;;;6.80;;
71148;SDS011;59072;42.144;25.200;2023-04-25T05:13:24;8.73;;;6.45;;
71148;SDS011;59072;42.144;25.200;2023-04-25T05:15:50;10.68;;;6.43;;
71148;SDS011;59072;42.144;25.200;2023-04-25T05:18:15;8.88;;;6.00;;
71148;SDS011;59072;42.144;25.200;2023-04-25T05:20:41;8.63;;;5.85;;
71148;SDS011;59072;42.144;25.200;2023-04-25T05:23:06;10.15;;;6.60;;
71148;SDS011;59072;42.144;25.200;2023-04-25T05:25:32;9.25;;;6.57;;
71148;SDS011;59072;42.144;25.200;2023-04-25T05:27:57;10.68;;;7.28;;
71148;SDS011;59072;42.144;25.200;2023-04-25T05:30:23;14.05;;;8.70;;
71148;SDS011;59072;42.144;25.200;2023-04-25T05:32:48;15.52;;;10.70;;
71148;SDS011;59072;42.144;25.200;2023-04-25T05:35:14;13.90;;;9.23;;
71148;SDS011;59072;42.144;25.200;2023-04-25T05:37:39;14.75;;;10.73;;
71148;SDS011;59072;42.144;25.200;2023-04-25T05:40:05;14.18;;;9.63;;
71148;SDS011;59072;42.144;25.200;2023-04-25T05:42:32;15.93;;;10.10;;
71148;SDS011;59072;42.144;25.200;2023-04-25T05:44:57;15.35;;;9.77;;
71148;SDS011;59072;42.144;25.200;2023-04-25T05:47:23;14.45;;;9.93;;
71148;SDS011;59072;42.144;25.200;2023-04-25T05:49:48;15.10;;;9.35;;
71148;SDS011;59072;42.144;25.200;2023-04-25T05:52:13;14.75;;;9.57;;
71148;SDS011;59072;42.144;25.200;2023-04-25T05:54:40;14.10;;;9.88;;
71148;SDS011;59072;42.144;25.200;2023-04-25T05:57:05;15.23;;;9.93;;
71148;SDS011;59072;42.144;25.200;2023-04-25T05:59:31;16.45;;;10.90;;
71148;SDS011;59072;42.144;25.200;2023-04-25T06:01:56;14.23;;;9.05;;
71148;SDS011;59072;42.144;25.200;2023-04-25T06:04:22;14.80;;;9.93;;
71148;SDS011;59072;42.144;25.200;2023-04-25T06:06:47;14.50;;;9.93;;
71148;SDS011;59072;42.144;25.200;2023-04-25T06:09:13;13.63;;;9.43;;
71148;SDS011;59072;42.144;25.200;2023-04-25T06:11:38;14.65;;;9.60;;
71148;SDS011;59072;42.144;25.200;2023-04-25T06:14:04;14.45;;;10.00;;
71148;SDS011;59072;42.144;25.200;2023-04-25T06:16:29;14.85;;;10.30;;
71148;SDS011;59072;42.144;25.200;2023-04-25T06:18:54;13.13;;;9.50;;
71148;SDS011;59072;42.144;25.200;2023-04-25T06:21:20;14.45;;;9.25;;
71148;SDS011;59072;42.144;25.200;2023-04-25T06:23:45;17.15;;;10.20;;
71148;SDS011;59072;42.144;25.200;2023-04-25T06:26:11;13.68;;;9.93;;
71148;SDS011;59072;42.144;25.200;2023-04-25T06:28:36;14.13;;;10.48;;
71148;SDS011;59072;42.144;25.200;2023-04-25T06:31:01;19.33;;;12.10;;
71148;SDS011;59072;42.144;25.200;2023-04-25T06:33:27;15.98;;;11.25;;
71148;SDS011;59072;42.144;25.200;2023-04-25T06:35:52;15.48;;;10.25;;
71148;SDS011;59072;42.144;25.200;2023-04-25T06:38:18;14.13;;;9.60;;
71148;SDS011;59072;42.144;25.200;2023-04-25T06:40:43;13.35;;;10.23;;
71148;SDS011;59072;42.144;25.200;2023-04-25T06:43:09;15.98;;;11.25;;
71148;SDS011;59072;42.144;25.200;2023-04-25T06:45:34;18.10;;;12.10;;
71148;SDS011;59072;42.144;25.200;2023-04-25T06:48:00;17.15;;;12.15;;
71148;SDS011;59072;42.144;25.200;2023-04-25T06:50:25;14.85;;;10.70;;
71148;SDS011;59072;42.144;25.200;2023-04-25T06:52:51;15.55;;;10.73;;
71148;SDS011;59072;42.144;25.200;2023-04-25T06:55:16;18.67;;;11.38;;
71148;SDS011;59072;42.144;25.200;2023-04-25T06:57:42;14.38;;;10.85;;
71148;SDS011;59072;42.144;25.200;2023-04-25T07:00:07;18.60;;;12.57;;
71148;SDS011;59072;42.144;25.200;2023-04-25T07:02:34;17.30;;;12.07;;
71148;SDS011;59072;42.144;25.200;2023-04-25T07:05:00;15.52;;;11.65;;
71148;SDS011;59072;42.144;25.200;2023-04-25T07:07:28;16.23;;;11.65;;
71148;SDS011;59072;42.144;25.200;2023-04-25T07:09:55;16.00;;;11.05;;
71148;SDS011;59072;42.144;25.200;2023-04-25T07:12:20;16.70;;;11.63;;
71148;SDS011;59072;42.144;25.200;2023-04-25T07:14:46;14.82;;;11.35;;
71148;SDS011;59072;42.144;25.200;2023-04-25T07:17:11;16.73;;;12.77;;
71148;SDS011;59072;42.144;25.200;2023-04-25T07:19:37;18.65;;;13.32;;
71148;SDS011;59072;42.144;25.200;2023-04-25T07:22:04;17.25;;;13.52;;
71148;SDS011;59072;42.144;25.200;2023-04-25T07:24:30;18.65;;;14.10;;
71148;SDS011;59072;42.144;25.200;2023-04-25T07:26:56;20.60;;;13.95;;
71148;SDS011;59072;42.144;25.200;2023-04-25T07:29:21;20.83;;;14.43;;
71148;SDS011;59072;42.144;25.200;2023-04-25T07:31:46;17.42;;;13.40;;
71148;SDS011;59072;42.144;25.200;2023-04-25T07:34:12;16.98;;;13.02;;
71148;SDS011;59072;42.144;25.200;2023-04-25T07:36:38;15.73;;;11.38;;
71148;SDS011;59072;42.144;25.200;2023-04-25T07:39:03;14.57;;;11.65;;
71148;SDS011;59072;42.144;25.200;2023-04-25T07:41:29;13.80;;;10.45;;
71148;SDS011;59072;42.144;25.200;2023-04-25T07:43:54;13.18;;;9.57;;
71148;SDS011;59072;42.144;25.200;2023-04-25T07:46:20;13.80;;;10.60;;
71148;SDS011;59072;42.144;25.200;2023-04-25T07:48:45;12.65;;;9.77;;
71148;SDS011;59072;42.144;25.200;2023-04-25T07:51:10;14.88;;;11.13;;
71148;SDS011;59072;42.144;25.200;2023-04-25T07:53:36;9.85;;;7.82;;
71148;SDS011;59072;42.144;25.200;2023-04-25T07:56:02;11.77;;;9.25;;
71148;SDS011;59072;42.144;25.200;2023-04-25T07:58:28;11.93;;;8.45;;
71148;SDS011;59072;42.144;25.200;2023-04-25T08:00:53;9.18;;;6.30;;
71148;SDS011;59072;42.144;25.200;2023-04-25T08:03:19;11.13;;;8.48;;
71148;SDS011;59072;42.144;25.200;2023-04-25T08:05:45;9.10;;;7.07;;
71148;SDS011;59072;42.144;25.200;2023-04-25T08:08:10;8.45;;;6.90;;
71148;SDS011;59072;42.144;25.200;2023-04-25T08:10:38;9.20;;;7.38;;
71148;SDS011;59072;42.144;25.200;2023-04-25T08:13:04;12.98;;;6.82;;
71148;SDS011;59072;42.144;25.200;2023-04-25T08:15:29;7.45;;;5.50;;
71148;SDS011;59072;42.144;25.200;2023-04-25T08:17:55;8.55;;;6.10;;
71148;SDS011;59072;42.144;25.200;2023-04-25T08:20:20;11.80;;;7.05;;
71148;SDS011;59072;42.144;25.200;2023-04-25T08:22:46;8.45;;;5.95;;
71148;SDS011;59072;42.144;25.200;2023-04-25T08:25:13;9.63;;;6.70;;
71148;SDS011;59072;42.144;25.200;2023-04-25T08:27:39;8.65;;;7.15;;
71148;SDS011;59072;42.144;25.200;2023-04-25T08:30:04;9.35;;;6.40;;
71148;SDS011;59072;42.144;25.200;2023-04-25T08:32:30;9.23;;;6.90;;
71148;SDS011;59072;42.144;25.200;2023-04-25T08:34:56;7.68;;;5.53;;
71148;SDS011;59072;42.144;25.200;2023-04-25T08:37:21;7.45;;;5.53;;
71148;SDS011;59072;42.144;25.200;2023-04-25T08:39:47;8.45;;;5.60;;
71148;SDS011;59072;42.144;25.200;2023-04-25T08:42:17;9.48;;;6.22;;
71148;SDS011;59072;42.144;25.200;2023-04-25T08:44:43;7.45;;;5.88;;
71148;SDS011;59072;42.144;25.200;2023-04-25T08:49:36;7.25;;;5.03;;
71148;SDS011;59072;42.144;25.200;2023-04-25T08:52:04;6.63;;;4.97;;
71148;SDS011;59072;42.144;25.200;2023-04-25T08:54:31;7.22;;;5.40;;
71148;SDS011;59072;42.144;25.200;2023-04-25T08:56:59;6.85;;;5.05;;
71148;SDS011;59072;42.144;25.200;2023-04-25T08:59:29;6.30;;;4.32;;
71148;SDS011;59072;42.144;25.200;2023-04-25T09:01:56;7.28;;;4.28;;
71148;SDS011;59072;42.144;25.200;2023-04-25T09:04:22;5.85;;;4.15;;
71148;SDS011;59072;42.144;25.200;2023-04-25T09:06:48;5.70;;;4.28;;
71148;SDS011;59072;42.144;25.200;2023-04-25T09:09:13;7.80;;;4.90;;
71148;SDS011;59072;42.144;25.200;2023-04-25T09:11:39;5.88;;;4.47;;
71148;SDS011;59072;42.144;25.200;2023-04-25T09:16:57;6.70;;;4.25;;
71148;SDS011;59072;42.144;25.200;2023-04-25T09:19:25;6.07;;;4.13;;
71148;SDS011;59072;42.144;25.200;2023-04-25T09:21:53;6.15;;;4.15;;
71148;SDS011;59072;42.144;25.200;2023-04-25T09:26:57;6.82;;;4.88;;
71148;SDS011;59072;42.144;25.200;2023-04-25T09:29:30;8.70;;;5.32;;
71148;SDS011;59072;42.144;25.200;2023-04-25T09:32:15;7.82;;;5.50;;
71148;SDS011;59072;42.144;25.200;2023-04-25T09:34:45;7.72;;;5.60;;
71148;SDS011;59072;42.144;25.200;2023-04-25T09:37:22;8.38;;;4.63;;
71148;SDS011;59072;42.144;25.200;2023-04-25T09:39:48;7.82;;;5.40;;
71148;SDS011;59072;42.144;25.200;2023-04-25T09:42:15;8.00;;;6.07;;
71148;SDS011;59072;42.144;25.200;2023-04-25T09:45:02;7.15;;;5.68;;
71148;SDS011;59072;42.144;25.200;2023-04-25T09:47:28;10.70;;;6.18;;
71148;SDS011;59072;42.144;25.200;2023-04-25T09:49:54;8.55;;;6.13;;
71148;SDS011;59072;42.144;25.200;2023-04-25T09:52:21;11.73;;;8.43;;
71148;SDS011;59072;42.144;25.200;2023-04-25T09:54:48;10.18;;;8.32;;
71148;SDS011;59072;42.144;25.200;2023-04-25T09:57:16;12.15;;;8.85;;
71148;SDS011;59072;42.144;25.200;2023-04-25T09:59:49;12.27;;;7.30;;
71148;SDS011;59072;42.144;25.200;2023-04-25T10:02:17;10.82;;;8.77;;
71148;SDS011;59072;42.144;25.200;2023-04-25T10:04:48;12.35;;;8.63;;
71148;SDS011;59072;42.144;25.200;2023-04-25T10:07:20;10.80;;;7.90;;
71148;SDS011;59072;42.144;25.200;2023-04-25T10:09:50;14.75;;;7.93;;
71148;SDS011;59072;42.144;25.200;2023-04-25T10:12:25;10.32;;;7.65;;
71148;SDS011;59072;42.144;25.200;2023-04-25T10:14:52;11.13;;;7.80;;
71148;SDS011;59072;42.144;25.200;2023-04-25T10:17:19;8.48;;;6.28;;
71148;SDS011;59072;42.144;25.200;2023-04-25T10:19:46;8.95;;;6.70;;
71148;SDS011;59072;42.144;25.200;2023-04-25T10:22:17;8.55;;;6.85;;
71148;SDS011;59072;42.144;25.200;2023-04-25T10:24:48;7.97;;;6.65;;
71148;SDS011;59072;42.144;25.200;2023-04-25T10:27:15;8.38;;;6.43;;
71148;SDS011;59072;42.144;25.200;2023-04-25T10:29:41;9.88;;;7.28;;
71148;SDS011;59072;42.144;25.200;2023-04-25T10:32:10;8.55;;;6.25;;
71148;SDS011;59072;42.144;25.200;2023-04-25T10:34:39;8.15;;;5.82;;
71148;SDS011;59072;42.144;25.200;2023-04-25T10:37:05;7.88;;;6.20;;
71148;SDS011;59072;42.144;25.200;2023-04-25T10:39:33;7.32;;;5.60;;
71148;SDS011;59072;42.144;25.200;2023-04-25T10:41:59;7.88;;;5.90;;
71148;SDS011;59072;42.144;25.200;2023-04-25T10:44:30;6.57;;;4.45;;
71148;SDS011;59072;42.144;25.200;2023-04-25T10:46:57;7.85;;;4.80;;
71148;SDS011;59072;42.144;25.200;2023-04-25T10:49:31;6.13;;;4.65;;
71148;SDS011;59072;42.144;25.200;2023-04-25T10:54:57;6.22;;;3.75;;
71148;SDS011;59072;42.144;25.200;2023-04-25T10:57:30;6.22;;;4.25;;
71148;SDS011;59072;42.144;25.200;2023-04-25T10:59:59;6.25;;;4.30;;
71148;SDS011;59072;42.144;25.200;2023-04-25T11:02:26;5.28;;;3.65;;
71148;SDS011;59072;42.144;25.200;2023-04-25T11:04:53;5.63;;;4.20;;
71148;SDS011;59072;42.144;25.200;2023-04-25T11:07:31;8.20;;;4.30;;
71148;SDS011;59072;42.144;25.200;2023-04-25T11:10:03;8.05;;;4.78;;
71148;SDS011;59072;42.144;25.200;2023-04-25T11:12:29;6.65;;;4.50;;
71148;SDS011;59072;42.144;25.200;2023-04-25T11:15:03;7.03;;;4.43;;
71148;SDS011;59072;42.144;25.200;2023-04-25T11:17:29;5.90;;;4.13;;
71148;SDS011;59072;42.144;25.200;2023-04-25T11:19:55;5.10;;;4.10;;
71148;SDS011;59072;42.144;25.200;2023-04-25T11:22:21;5.43;;;4.22;;
71148;SDS011;59072;42.144;25.200;2023-04-25T11:24:47;6.88;;;4.43;;
71148;SDS011;59072;42.144;25.200;2023-04-25T11:27:13;6.07;;;3.88;;
71148;SDS011;59072;42.144;25.200;2023-04-25T11:29:39;5.75;;;4.20;;
71148;SDS011;59072;42.144;25.200;2023-04-25T11:32:06;5.32;;;3.60;;
71148;SDS011;59072;42.144;25.200;2023-04-25T11:34:32;6.53;;;4.40;;
71148;SDS011;59072;42.144;25.200;2023-04-25T11:36:59;5.32;;;3.50;;
71148;SDS011;59072;42.144;25.200;2023-04-25T11:39:25;6.40;;;3.77;;
71148;SDS011;59072;42.144;25.200;2023-04-25T11:41:52;5.18;;;3.65;;
71148;SDS011;59072;42.144;25.200;2023-04-25T11:44:19;4.60;;;3.25;;
71148;SDS011;59072;42.144;25.200;2023-04-25T11:46:45;5.43;;;3.70;;
71148;SDS011;59072;42.144;25.200;2023-04-25T11:49:11;4.30;;;3.17;;
71148;SDS011;59072;42.144;25.200;2023-04-25T11:51:38;4.97;;;3.20;;
71148;SDS011;59072;42.144;25.200;2023-04-25T11:54:05;4.20;;;2.83;;
71148;SDS011;59072;42.144;25.200;2023-04-25T11:56:30;4.15;;;3.20;;
71148;SDS011;59072;42.144;25.200;2023-04-25T11:59:01;3.90;;;2.55;;
71148;SDS011;59072;42.144;25.200;2023-04-25T12:03:53;3.53;;;2.45;;
71148;SDS011;59072;42.144;25.200;2023-04-25T12:06:18;3.80;;;2.75;;
71148;SDS011;59072;42.144;25.200;2023-04-25T12:09:02;4.35;;;2.65;;
71148;SDS011;59072;42.144;25.200;2023-04-25T12:11:32;3.72;;;2.60;;
71148;SDS011;59072;42.144;25.200;2023-04-25T12:14:05;2.67;;;2.25;;
71148;SDS011;59072;42.144;25.200;2023-04-25T12:16:40;2.92;;;2.15;;
71148;SDS011;59072;42.144;25.200;2023-04-25T12:19:07;2.67;;;2.10;;
71148;SDS011;59072;42.144;25.200;2023-04-25T12:21:33;4.13;;;1.90;;
71148;SDS011;59072;42.144;25.200;2023-04-25T12:26:49;2.35;;;1.70;;
71148;SDS011;59072;42.144;25.200;2023-04-25T12:29:19;3.92;;;1.77;;
71148;SDS011;59072;42.144;25.200;2023-04-25T12:31:49;3.25;;;1.90;;
71148;SDS011;59072;42.144;25.200;2023-04-25T12:36:46;3.13;;;1.98;;
71148;SDS011;59072;42.144;25.200;2023-04-25T12:41:47;4.93;;;2.00;;
71148;SDS011;59072;42.144;25.200;2023-04-25T12:44:13;3.92;;;2.10;;
71148;SDS011;59072;42.144;25.200;2023-04-25T12:46:39;2.95;;;1.85;;
71148;SDS011;59072;42.144;25.200;2023-04-25T12:49:06;4.65;;;2.38;;
71148;SDS011;59072;42.144;25.200;2023-04-25T12:51:33;2.60;;;1.73;;
71148;SDS011;59072;42.144;25.200;2023-04-25T12:53:59;3.05;;;2.00;;
71148;SDS011;59072;42.144;25.200;2023-04-25T12:56:26;3.75;;;2.10;;
71148;SDS011;59072;42.144;25.200;2023-04-25T12:58:52;2.80;;;1.92;;
71148;SDS011;59072;42.144;25.200;2023-04-25T13:01:18;2.70;;;1.67;;
71148;SDS011;59072;42.144;25.200;2023-04-25T13:03:45;2.45;;;1.90;;
71148;SDS011;59072;42.144;25.200;2023-04-25T13:06:10;2.08;;;1.45;;
71148;SDS011;59072;42.144;25.200;2023-04-25T13:08:36;3.58;;;1.75;;
71148;SDS011;59072;42.144;25.200;2023-04-25T13:11:03;2.60;;;1.73;;
71148;SDS011;59072;42.144;25.200;2023-04-25T13:13:29;2.55;;;1.80;;
71148;SDS011;59072;42.144;25.200;2023-04-25T13:15:54;2.08;;;1.67;;
71148;SDS011;59072;42.144;25.200;2023-04-25T13:18:20;3.40;;;2.17;;
71148;SDS011;59072;42.144;25.200;2023-04-25T13:20:46;2.80;;;1.73;;
71148;SDS011;59072;42.144;25.200;2023-04-25T13:23:11;2.88;;;1.90;;
71148;SDS011;59072;42.144;25.200;2023-04-25T13:25:37;2.97;;;1.77;;
71148;SDS011;59072;42.144;25.200;2023-04-25T13:28:02;1.92;;;1.70;;
71148;SDS011;59072;42.144;25.200;2023-04-25T13:30:28;2.53;;;1.80;;
71148;SDS011;59072;42.144;25.200;2023-04-25T13:32:53;2.60;;;1.63;;
71148;SDS011;59072;42.144;25.200;2023-04-25T13:35:21;2.65;;;1.67;;
71148;SDS011;59072;42.144;25.200;2023-04-25T13:37:47;2.35;;;1.58;;
71148;SDS011;59072;42.144;25.200;2023-04-25T13:40:12;2.15;;;1.67;;
71148;SDS011;59072;42.144;25.200;2023-04-25T13:42:38;2.78;;;2.03;;
71148;SDS011;59072;42.144;25.200;2023-04-25T13:45:04;5.70;;;1.70;;
71148;SDS011;59072;42.144;25.200;2023-04-25T13:47:30;5.07;;;2.00;;
71148;SDS011;59072;42.144;25.200;2023-04-25T13:49:56;2.55;;;1.70;;
71148;SDS011;59072;42.144;25.200;2023-04-25T13:52:22;3.20;;;2.05;;
71148;SDS011;59072;42.144;25.200;2023-04-25T13:54:49;1.95;;;1.65;;
71148;SDS011;59072;42.144;25.200;2023-04-25T13:57:14;3.15;;;1.80;;
71148;SDS011;59072;42.144;25.200;2023-04-25T13:59:40;2.45;;;1.92;;
71148;SDS011;59072;42.144;25.200;2023-04-25T14:02:06;2.97;;;1.90;;
71148;SDS011;59072;42.144;25.200;2023-04-25T14:04:32;2.05;;;1.70;;
71148;SDS011;59072;42.144;25.200;2023-04-25T14:06:58;10.68;;;2.40;;
71148;SDS011;59072;42.144;25.200;2023-04-25T14:09:23;4.82;;;2.90;;
71148;SDS011;59072;42.144;25.200;2023-04-25T14:11:53;2.80;;;1.73;;
71148;SDS011;59072;42.144;25.200;2023-04-25T14:14:20;2.33;;;1.70;;
71148;SDS011;59072;42.144;25.200;2023-04-25T14:16:47;3.07;;;1.80;;
71148;SDS011;59072;42.144;25.200;2023-04-25T14:19:13;3.78;;;1.80;;
71148;SDS011;59072;42.144;25.200;2023-04-25T14:21:39;3.30;;;1.90;;
71148;SDS011;59072;42.144;25.200;2023-04-25T14:24:05;2.35;;;1.73;;
71148;SDS011;59072;42.144;25.200;2023-04-25T14:26:31;2.90;;;2.20;;
71148;SDS011;59072;42.144;25.200;2023-04-25T14:28:58;2.58;;;1.73;;
71148;SDS011;59072;42.144;25.200;2023-04-25T14:31:23;3.33;;;1.80;;
71148;SDS011;59072;42.144;25.200;2023-04-25T14:33:49;3.35;;;1.67;;
71148;SDS011;59072;42.144;25.200;2023-04-25T14:36:15;2.30;;;1.80;;
71148;SDS011;59072;42.144;25.200;2023-04-25T14:38:40;2.15;;;1.52;;
71148;SDS011;59072;42.144;25.200;2023-04-25T14:41:06;2.25;;;2.03;;
71148;SDS011;59072;42.144;25.200;2023-04-25T14:43:31;3.97;;;1.50;;
71148;SDS011;59072;42.144;25.200;2023-04-25T14:45:56;2.42;;;1.70;;